首页
METAR-TAF:

METAR-TAF

机场 :

Redwood Falls Municipal Airport

Redwood Falls, 明尼蘇達州, 美国

纬度: 44-32-50N, 经度: 095-04-56W, 海拔: 312米

当前天气观测

该预报发布于18分钟前的04:53 UTC
风速6节,风向西
温度 26°C
湿度 94%
气压 1002 hPa
能見度: 14.5公里
天空无云

METAR: KRWF 250453Z AUTO 28006KT 9SM CLR 26/25 A2960 RMK AO2 SLP015 T02610250

时间: 00:11 (05:11 UTC)

预报

该预报发布于5小时和51分钟前的23:20 UTC
预报有效从25日的 00点(UTC)到 25日的 24点(UTC)
风速15节,风向南转南东,有时为25节阵风
能見度: 10公里
多云层高于25000英尺
从 25日的 0200点(UTC)
风速8节,风向西
能見度: 10公里
少量云层高于25000英尺
从 25日的 0500点(UTC)
风速7节,风向西北
能見度: 10公里
散云层高于25000英尺

TAF: KRWF 242320Z 2500/2524 16015G25KT P6SM BKN250 FM250200 26008KT P6SM FEW250 FM250500 31007KT P6SM SCT250

超过4000个机场的气象观测和天气预报(METAR&TAF报告)。

可查询的气象台以黄色和红色小点在地图上表示。

将鼠标移到小点上方,可查看气象台名称。

然后点击查看天气观测和预报。

如需切换地图:点击带黑十字的绿色按钮放大地图;点击带横线的绿色按钮缩小地图;或者点击绿色箭头查看邻近地区的地图。


METAR-TAF: